createdAt,value
2023-06-10T00:00:36.952Z,14.00
2023-06-10T00:01:38.835Z,13.98
2023-06-10T00:02:40.834Z,13.96
2023-06-10T00:03:44.634Z,13.93
2023-06-10T00:04:46.547Z,13.94
2023-06-10T00:05:48.217Z,13.92
2023-06-10T00:06:50.701Z,13.94
2023-06-10T00:07:54.354Z,13.92
2023-06-10T00:08:58.590Z,13.93
2023-06-10T00:10:01.072Z,13.92
2023-06-10T00:11:02.684Z,13.91
2023-06-10T00:12:09.050Z,13.90
2023-06-10T00:13:11.060Z,13.89
2023-06-10T00:14:12.723Z,13.89
2023-06-10T00:15:17.388Z,13.89
2023-06-10T00:16:22.364Z,13.87
2023-06-10T00:17:26.349Z,13.87
2023-06-10T00:18:28.093Z,13.85
2023-06-10T00:19:32.762Z,13.83
2023-06-10T00:20:37.046Z,13.81
2023-06-10T00:21:41.170Z,13.80
2023-06-10T00:22:46.616Z,13.80
2023-06-10T00:23:48.444Z,13.82
2023-06-10T00:24:50.146Z,13.80
2023-06-10T00:25:51.807Z,13.81
2023-06-10T00:26:53.432Z,13.83
2023-06-10T00:27:55.043Z,13.82
2023-06-10T00:28:56.654Z,13.82
2023-06-10T00:29:58.657Z,13.82
2023-06-10T00:31:00.474Z,13.77
2023-06-10T00:32:02.258Z,13.73
2023-06-10T00:33:04.204Z,13.72
2023-06-10T00:34:05.933Z,13.72
2023-06-10T00:35:08.668Z,13.73
2023-06-10T00:36:10.763Z,13.70
2023-06-10T00:37:12.347Z,13.70
2023-06-10T00:38:15.887Z,13.68
2023-06-10T00:39:18.588Z,13.68
2023-06-10T00:40:20.460Z,13.66
2023-06-10T00:41:22.065Z,13.63
2023-06-10T00:42:25.206Z,13.61
2023-06-10T00:43:26.863Z,13.59
2023-06-10T00:44:28.525Z,13.59
2023-06-10T00:45:30.418Z,13.60
2023-06-10T00:46:34.644Z,13.60
2023-06-10T00:47:36.663Z,13.60
2023-06-10T00:48:39.795Z,13.59
2023-06-10T00:49:41.506Z,13.56
2023-06-10T00:50:43.153Z,13.55
2023-06-10T00:51:45.226Z,13.54
2023-06-10T00:52:49.442Z,13.54
2023-06-10T00:53:53.646Z,13.52
2023-06-10T00:54:55.684Z,13.50
2023-06-10T00:55:57.856Z,13.50
2023-06-10T00:57:01.871Z,13.50
2023-06-10T00:58:05.057Z,13.47
2023-06-10T00:59:07.512Z,13.47
2023-06-10T01:00:09.982Z,13.47
2023-06-10T01:01:14.511Z,13.50
2023-06-10T01:02:16.356Z,13.48
2023-06-10T01:03:18.737Z,13.49
2023-06-10T01:04:20.958Z,13.50
2023-06-10T01:05:24.794Z,13.50
2023-06-10T01:07:07.105Z,13.47
2023-06-10T01:08:40.506Z,13.42
2023-06-10T01:10:03.952Z,13.39
2023-06-10T01:11:09.862Z,13.39
2023-06-10T01:12:20.093Z,13.37
2023-06-10T01:13:24.936Z,13.36
2023-06-10T01:14:27.857Z,13.34
2023-06-10T01:15:32.937Z,13.32
2023-06-10T01:16:37.067Z,13.33
2023-06-10T01:18:04.601Z,13.34
2023-06-10T01:19:07.552Z,13.35
2023-06-10T01:20:13.109Z,13.38
2023-06-10T01:21:21.980Z,13.40
2023-06-10T01:22:29.328Z,13.43
2023-06-10T01:23:31.488Z,13.42
2023-06-10T01:24:33.688Z,13.42
2023-06-10T01:25:50.955Z,13.44
2023-06-10T01:26:54.910Z,13.45
2023-06-10T01:28:02.342Z,13.45
2023-06-10T01:29:20.041Z,13.44
2023-06-10T01:30:30.814Z,13.43
2023-06-10T01:31:43.082Z,13.43
2023-06-10T01:32:52.361Z,13.44
2023-06-10T01:33:54.923Z,13.45
2023-06-10T01:35:00.615Z,13.47
2023-06-10T01:36:04.499Z,13.47
2023-06-10T01:37:07.004Z,13.47
2023-06-10T01:38:08.690Z,13.48
2023-06-10T01:39:12.915Z,13.49
2023-06-10T01:40:15.880Z,13.51
2023-06-10T01:41:18.717Z,13.53
2023-06-10T01:42:21.691Z,13.54
2023-06-10T01:43:23.376Z,13.54
2023-06-10T01:44:25.596Z,13.54
2023-06-10T01:45:27.251Z,13.57
2023-06-10T01:46:28.930Z,13.59
2023-06-10T01:47:31.161Z,13.59
2023-06-10T01:48:35.473Z,13.60
2023-06-10T01:49:37.143Z,13.58
2023-06-10T01:50:38.783Z,13.56
2023-06-10T01:51:40.701Z,13.56
2023-06-10T01:52:42.877Z,13.56
2023-06-10T01:53:44.624Z,13.57
2023-06-10T01:54:46.264Z,13.57
2023-06-10T01:55:47.889Z,13.55
2023-06-10T01:56:49.530Z,13.53
2023-06-10T01:57:51.362Z,13.52
2023-06-10T01:58:56.057Z,13.53
2023-06-10T01:59:57.767Z,13.53
2023-06-10T02:00:59.435Z,13.53
2023-06-10T02:02:01.177Z,13.53
2023-06-10T02:03:03.235Z,13.50
2023-06-10T02:04:04.996Z,13.49
2023-06-10T02:05:07.976Z,13.50
2023-06-10T02:06:12.521Z,13.52
2023-06-10T02:07:14.192Z,13.53
2023-06-10T02:08:16.025Z,13.55
2023-06-10T02:09:19.437Z,13.57
2023-06-10T02:10:21.305Z,13.59
2023-06-10T02:11:22.957Z,13.61
2023-06-10T02:12:24.591Z,13.61
2023-06-10T02:13:26.243Z,13.64
2023-06-10T02:14:29.596Z,13.64
2023-06-10T02:15:31.191Z,13.66
2023-06-10T02:16:32.976Z,13.67
2023-06-10T02:17:36.829Z,13.68
2023-06-10T02:18:39.498Z,13.71
2023-06-10T02:19:44.064Z,13.72
2023-06-10T02:20:45.822Z,13.73
2023-06-10T02:21:47.575Z,13.74
2023-06-10T02:22:52.789Z,13.75
2023-06-10T02:23:54.497Z,13.75
2023-06-10T02:24:56.164Z,13.76
2023-06-10T02:25:57.807Z,13.77
2023-06-10T02:27:01.477Z,13.77
2023-06-10T02:28:04.511Z,13.77
2023-06-10T02:29:06.187Z,13.77
2023-06-10T02:30:11.295Z,13.78
2023-06-10T02:31:12.953Z,13.76
2023-06-10T02:32:14.876Z,13.78
2023-06-10T02:33:18.640Z,13.77
2023-06-10T02:34:20.831Z,13.76
2023-06-10T02:35:23.692Z,13.75
2023-06-10T02:36:29.199Z,13.75
2023-06-10T02:37:31.202Z,13.75
2023-06-10T02:38:33.200Z,13.74
2023-06-10T02:39:35.807Z,13.72
2023-06-10T02:40:41.362Z,13.71
2023-06-10T02:41:43.309Z,13.72
2023-06-10T02:42:45.049Z,13.69
2023-06-10T02:43:47.224Z,13.70
2023-06-10T02:44:48.962Z,13.68
2023-06-10T02:45:57.536Z,13.68
2023-06-10T02:46:59.369Z,13.67
2023-06-10T02:48:01.427Z,13.66
2023-06-10T02:49:03.644Z,13.64
2023-06-10T02:50:05.682Z,13.64
2023-06-10T02:51:12.074Z,13.63
2023-06-10T02:52:17.418Z,13.62
2023-06-10T02:53:19.136Z,13.61
2023-06-10T02:54:26.626Z,13.60
2023-06-10T02:55:30.519Z,13.60
2023-06-10T02:56:37.506Z,13.60
2023-06-10T02:57:41.669Z,13.58
2023-06-10T02:58:43.818Z,13.60
2023-06-10T02:59:48.638Z,13.58
2023-06-10T03:00:50.732Z,13.56
2023-06-10T03:01:52.676Z,13.52
2023-06-10T03:02:58.612Z,13.50
2023-06-10T03:04:06.408Z,13.48
2023-06-10T03:05:12.397Z,13.46
2023-06-10T03:06:17.814Z,13.45
2023-06-10T03:07:21.764Z,13.43
2023-06-10T03:08:27.380Z,13.42
2023-06-10T03:09:30.307Z,13.41
2023-06-10T03:10:34.444Z,13.40
2023-06-10T03:11:36.904Z,13.40
2023-06-10T03:12:39.522Z,13.39
2023-06-10T03:13:41.673Z,13.38
2023-06-10T03:14:46.254Z,13.37
2023-06-10T03:15:48.083Z,13.35
2023-06-10T03:16:53.160Z,13.32
2023-06-10T03:17:56.382Z,13.30
2023-06-10T03:18:58.962Z,13.29
2023-06-10T03:20:01.022Z,13.27
2023-06-10T03:21:03.848Z,13.25
2023-06-10T03:22:13.664Z,13.21
2023-06-10T03:23:21.695Z,13.18
2023-06-10T03:24:23.609Z,13.17
2023-06-10T03:25:27.208Z,13.15
2023-06-10T03:26:29.639Z,13.13
2023-06-10T03:27:32.418Z,13.14
2023-06-10T03:28:36.824Z,13.15
2023-06-10T03:29:39.020Z,13.16
2023-06-10T03:30:41.842Z,13.16
2023-06-10T03:31:45.169Z,13.18
2023-06-10T03:32:46.947Z,13.19
2023-06-10T03:33:52.054Z,13.20
2023-06-10T03:34:58.063Z,13.22
2023-06-10T03:36:01.704Z,13.22
2023-06-10T03:37:04.191Z,13.23
2023-06-10T03:38:07.047Z,13.23
2023-06-10T03:39:08.910Z,13.24
2023-06-10T03:40:11.430Z,13.27
2023-06-10T03:41:16.143Z,13.32
2023-06-10T03:42:19.577Z,13.40
2023-06-10T03:43:21.530Z,13.44
2023-06-10T03:44:27.152Z,13.44
2023-06-10T03:45:29.375Z,13.43
2023-06-10T03:46:32.235Z,13.44
2023-06-10T03:47:38.057Z,13.44
2023-06-10T03:48:43.644Z,13.44
2023-06-10T03:49:45.521Z,13.45
2023-06-10T03:50:48.681Z,13.45
2023-06-10T03:51:51.091Z,13.46
2023-06-10T03:52:53.048Z,13.47
2023-06-10T03:53:58.493Z,13.46
2023-06-10T03:55:00.155Z,13.47
2023-06-10T03:56:01.847Z,13.48
2023-06-10T03:57:06.741Z,13.49
2023-06-10T03:58:08.388Z,13.51
2023-06-10T03:59:10.083Z,13.54
2023-06-10T04:00:13.075Z,13.55
2023-06-10T04:01:19.168Z,13.57
2023-06-10T04:02:21.014Z,13.56
2023-06-10T04:03:24.049Z,13.58
2023-06-10T04:04:27.418Z,13.59
2023-06-10T04:05:29.881Z,13.60
2023-06-10T04:06:32.704Z,13.62
2023-06-10T04:07:35.472Z,13.64
2023-06-10T04:08:37.358Z,13.67
2023-06-10T04:09:39.876Z,13.70
2023-06-10T04:10:41.541Z,13.71
2023-06-10T04:11:43.191Z,13.75
2023-06-10T04:12:45.403Z,13.78
2023-06-10T04:13:47.167Z,13.81
2023-06-10T04:14:49.756Z,13.84
2023-06-10T04:15:51.975Z,13.88
2023-06-10T04:16:56.304Z,13.92
2023-06-10T04:17:58.374Z,13.93
2023-06-10T04:19:01.693Z,13.96
2023-06-10T04:20:07.552Z,13.99
2023-06-10T04:21:11.803Z,14.02
2023-06-10T04:22:13.746Z,14.06
2023-06-10T04:23:15.531Z,14.06
2023-06-10T04:24:19.635Z,14.09
2023-06-10T04:25:21.668Z,14.10
2023-06-10T04:26:26.530Z,14.10
2023-06-10T04:27:28.684Z,14.10
2023-06-10T04:28:30.500Z,14.13
2023-06-10T04:29:32.984Z,14.11
2023-06-10T04:30:35.226Z,14.09
2023-06-10T04:31:37.450Z,14.09
2023-06-10T04:32:40.238Z,14.12
2023-06-10T04:33:45.533Z,14.13
2023-06-10T04:34:47.243Z,14.09
2023-06-10T04:35:49.874Z,14.06
2023-06-10T04:36:53.229Z,14.11
2023-06-10T04:37:56.073Z,14.18
2023-06-10T04:38:57.821Z,14.25
2023-06-10T04:40:00.391Z,14.31
2023-06-10T04:41:03.350Z,14.40
2023-06-10T04:42:08.237Z,14.43
2023-06-10T04:43:10.505Z,14.47
2023-06-10T04:44:14.718Z,14.52
2023-06-10T04:45:16.963Z,14.60
2023-06-10T04:46:18.697Z,14.68
2023-06-10T04:47:21.288Z,14.68
2023-06-10T04:48:24.956Z,14.73
2023-06-10T04:49:27.353Z,14.75
2023-06-10T04:50:28.982Z,14.75
2023-06-10T04:51:30.627Z,14.76
2023-06-10T04:52:32.321Z,14.80
2023-06-10T04:53:35.537Z,14.84
2023-06-10T04:54:37.149Z,14.90
2023-06-10T04:55:38.759Z,14.91
2023-06-10T04:56:40.891Z,14.93
2023-06-10T04:57:42.695Z,14.97
2023-06-10T04:58:44.563Z,14.98
2023-06-10T04:59:46.242Z,15.01
2023-06-10T05:00:47.874Z,15.04
2023-06-10T05:01:49.589Z,15.07
2023-06-10T05:02:52.384Z,15.11
2023-06-10T05:03:54.090Z,15.16
2023-06-10T05:04:56.131Z,15.16
2023-06-10T05:05:57.805Z,15.21
2023-06-10T05:06:59.869Z,15.23
2023-06-10T05:08:01.552Z,15.26
2023-06-10T05:09:03.387Z,15.29
2023-06-10T05:10:05.415Z,15.33
2023-06-10T05:11:07.389Z,15.37
2023-06-10T05:12:09.974Z,15.44
2023-06-10T05:13:12.001Z,15.49
2023-06-10T05:14:13.915Z,15.58
2023-06-10T05:15:15.641Z,15.60
2023-06-10T05:16:17.366Z,15.59
2023-06-10T05:17:21.231Z,15.63
2023-06-10T05:18:22.905Z,15.62
2023-06-10T05:19:24.666Z,15.66
2023-06-10T05:20:27.014Z,15.70
2023-06-10T05:21:28.677Z,15.73
2023-06-10T05:22:30.355Z,15.78
2023-06-10T05:23:32.070Z,15.81
2023-06-10T05:24:33.774Z,15.83
2023-06-10T05:25:36.128Z,15.86
2023-06-10T05:26:38.397Z,15.92
2023-06-10T05:27:41.328Z,15.95
2023-06-10T05:28:44.042Z,15.98
2023-06-10T05:29:46.457Z,16.03
2023-06-10T05:30:48.073Z,16.04
2023-06-10T05:31:49.714Z,16.02
2023-06-10T05:32:52.326Z,16.03
2023-06-10T05:33:56.230Z,16.08
2023-06-10T05:34:57.843Z,16.13
2023-06-10T05:35:59.512Z,16.15
2023-06-10T05:37:01.107Z,16.18
2023-06-10T05:38:04.217Z,16.26
2023-06-10T05:39:06.073Z,16.26
2023-06-10T05:40:08.418Z,16.29
2023-06-10T05:41:10.168Z,16.36
2023-06-10T05:42:11.778Z,16.44
2023-06-10T05:43:13.464Z,16.48
2023-06-10T05:44:15.165Z,16.51
2023-06-10T05:45:17.132Z,16.53
2023-06-10T05:46:18.889Z,16.57
2023-06-10T05:47:20.723Z,16.61
2023-06-10T05:48:22.454Z,16.68
2023-06-10T05:49:24.040Z,16.72
2023-06-10T05:50:25.936Z,16.74
2023-06-10T05:51:28.509Z,16.69
2023-06-10T05:52:30.142Z,16.62
2023-06-10T05:53:32.978Z,16.69
2023-06-10T05:54:34.690Z,16.77
2023-06-10T05:55:37.148Z,16.86
2023-06-10T05:56:38.797Z,16.95
2023-06-10T05:57:42.715Z,17.07
2023-06-10T05:58:44.325Z,17.17
2023-06-10T05:59:46.105Z,17.28
2023-06-10T06:00:47.714Z,17.39
2023-06-10T06:01:51.114Z,17.42
2023-06-10T06:02:53.785Z,17.48
2023-06-10T06:03:55.836Z,17.53
2023-06-10T06:04:57.738Z,17.57
2023-06-10T06:05:59.478Z,17.50
2023-06-10T06:07:01.173Z,17.55
2023-06-10T06:08:03.301Z,17.59
2023-06-10T06:09:04.992Z,17.60
2023-06-10T06:10:07.149Z,17.58
2023-06-10T06:11:08.781Z,17.59
2023-06-10T06:12:10.685Z,17.60
2023-06-10T06:13:12.378Z,17.64
2023-06-10T06:14:14.003Z,17.72
2023-06-10T06:15:15.778Z,17.81
2023-06-10T06:16:17.956Z,17.88
2023-06-10T06:17:19.683Z,17.81
2023-06-10T06:18:21.414Z,17.81
2023-06-10T06:19:23.092Z,17.87
2023-06-10T06:20:24.808Z,17.95
2023-06-10T06:21:26.483Z,18.09
2023-06-10T06:22:28.075Z,18.15
2023-06-10T06:23:29.722Z,18.16
2023-06-10T06:24:31.416Z,18.21
2023-06-10T06:25:33.088Z,18.18
2023-06-10T06:26:34.747Z,18.28
2023-06-10T06:27:36.349Z,18.35
2023-06-10T06:28:38.225Z,18.47
2023-06-10T06:29:40.000Z,18.51
2023-06-10T06:30:42.095Z,18.53
2023-06-10T06:31:43.697Z,18.53
2023-06-10T06:32:45.549Z,18.37
2023-06-10T06:33:47.192Z,18.28
2023-06-10T06:34:50.631Z,18.32
2023-06-10T06:35:52.220Z,18.28
2023-06-10T06:36:53.868Z,18.19
2023-06-10T06:37:56.337Z,18.23
2023-06-10T06:39:02.529Z,18.34
2023-06-10T06:40:05.040Z,18.37
2023-06-10T06:41:07.631Z,18.33
2023-06-10T06:42:09.452Z,18.21
2023-06-10T06:43:37.147Z,18.20
2023-06-10T06:44:45.666Z,18.18
2023-06-10T06:45:47.390Z,18.28
2023-06-10T06:46:49.163Z,18.40
2023-06-10T06:47:50.994Z,18.51
2023-06-10T06:48:52.923Z,18.63
2023-06-10T06:49:54.730Z,18.64
2023-06-10T06:50:57.418Z,18.68
2023-06-10T06:51:59.038Z,18.62
2023-06-10T06:53:00.792Z,18.67
2023-06-10T06:54:02.663Z,18.69
2023-06-10T06:55:04.965Z,18.72
2023-06-10T06:56:06.589Z,18.78
2023-06-10T06:57:09.162Z,18.83
2023-06-10T06:58:10.931Z,18.88
2023-06-10T06:59:15.036Z,18.95
2023-06-10T07:00:16.962Z,18.94
2023-06-10T07:01:18.723Z,18.91
2023-06-10T07:02:20.933Z,18.95
2023-06-10T07:03:22.600Z,18.97
2023-06-10T07:04:24.461Z,18.95
2023-06-10T07:05:28.611Z,19.04
2023-06-10T07:06:30.406Z,19.17
2023-06-10T07:07:31.992Z,19.23
2023-06-10T07:08:33.760Z,19.25
2023-06-10T07:09:35.484Z,19.26
2023-06-10T07:10:37.119Z,19.22
2023-06-10T07:11:38.799Z,19.20
2023-06-10T07:12:40.483Z,19.10
2023-06-10T07:13:42.729Z,19.02
2023-06-10T07:14:44.549Z,19.07
2023-06-10T07:15:46.150Z,19.08
2023-06-10T07:16:49.583Z,19.15
2023-06-10T07:17:51.517Z,19.19
2023-06-10T07:18:56.133Z,19.26
2023-06-10T07:20:00.540Z,19.31
2023-06-10T07:21:02.139Z,19.38
2023-06-10T07:22:03.913Z,19.37
2023-06-10T07:23:05.748Z,19.30
2023-06-10T07:24:07.728Z,19.23
2023-06-10T07:25:09.962Z,19.06
2023-06-10T07:26:14.293Z,18.96
2023-06-10T07:27:16.119Z,18.92
2023-06-10T07:28:17.781Z,18.99
2023-06-10T07:29:19.520Z,18.93
2023-06-10T07:30:21.423Z,18.89
2023-06-10T07:31:24.752Z,18.94
2023-06-10T07:32:26.537Z,19.02
2023-06-10T07:33:28.234Z,19.11
2023-06-10T07:34:29.834Z,19.20
2023-06-10T07:35:31.486Z,19.26
2023-06-10T07:36:33.181Z,19.20
2023-06-10T07:37:36.852Z,19.25
2023-06-10T07:38:38.541Z,19.39
2023-06-10T07:39:40.362Z,19.40
2023-06-10T07:40:41.935Z,19.45
2023-06-10T07:41:43.713Z,19.54
2023-06-10T07:42:45.524Z,19.54
2023-06-10T07:43:47.215Z,19.55
2023-06-10T07:44:48.869Z,19.51
2023-06-10T07:45:50.572Z,19.35
2023-06-10T07:46:52.259Z,19.39
2023-06-10T07:47:53.949Z,19.40
2023-06-10T07:48:55.959Z,19.44
2023-06-10T07:49:57.631Z,19.53
2023-06-10T07:50:59.322Z,19.57
2023-06-10T07:52:01.024Z,19.49
2023-06-10T07:53:02.814Z,19.43
2023-06-10T07:54:04.719Z,19.39
2023-06-10T07:55:06.961Z,19.39
2023-06-10T07:56:10.920Z,19.36
2023-06-10T07:57:12.548Z,19.33
2023-06-10T07:58:14.237Z,19.32
2023-06-10T07:59:15.977Z,19.38
2023-06-10T08:00:18.075Z,19.34
2023-06-10T08:01:22.131Z,19.37
2023-06-10T08:02:25.732Z,19.36
2023-06-10T08:03:27.833Z,19.40
2023-06-10T08:04:31.994Z,19.35
2023-06-10T08:05:33.792Z,19.43
2023-06-10T08:06:35.470Z,19.50
2023-06-10T08:07:37.251Z,19.46
2023-06-10T08:08:44.015Z,19.53
2023-06-10T08:09:45.692Z,19.64
2023-06-10T08:10:47.494Z,19.70
2023-06-10T08:11:49.099Z,19.64
2023-06-10T08:12:50.961Z,19.64
2023-06-10T08:13:52.716Z,19.63
2023-06-10T08:14:56.013Z,19.64
2023-06-10T08:15:57.651Z,19.64
2023-06-10T08:16:59.402Z,19.60
2023-06-10T08:18:01.166Z,19.63
2023-06-10T08:19:02.971Z,19.67
2023-06-10T08:20:05.002Z,19.72
2023-06-10T08:21:06.677Z,19.62
2023-06-10T08:22:08.320Z,19.58
2023-06-10T08:23:10.018Z,19.69
2023-06-10T08:24:11.763Z,19.72
2023-06-10T08:25:13.446Z,19.77
2023-06-10T08:26:15.199Z,19.84
2023-06-10T08:27:16.838Z,19.92
2023-06-10T08:28:19.374Z,19.97
2023-06-10T08:29:21.001Z,20.04
2023-06-10T08:30:22.645Z,20.06
2023-06-10T08:31:24.595Z,20.04
2023-06-10T08:32:26.202Z,20.03
2023-06-10T08:33:27.952Z,19.98
2023-06-10T08:34:29.665Z,19.99
2023-06-10T08:35:31.344Z,20.05
2023-06-10T08:36:32.923Z,20.13
2023-06-10T08:37:34.663Z,20.16
2023-06-10T08:38:36.865Z,20.18
2023-06-10T08:39:38.964Z,20.23
2023-06-10T08:40:40.758Z,20.23
2023-06-10T08:41:44.940Z,20.25
2023-06-10T08:43:11.647Z,20.27
2023-06-10T08:44:29.521Z,20.29
2023-06-10T08:45:33.230Z,20.27
2023-06-10T08:46:37.033Z,20.29
2023-06-10T08:47:43.438Z,20.28
2023-06-10T08:48:48.633Z,20.39
2023-06-10T08:49:50.649Z,20.42
2023-06-10T08:50:53.441Z,20.54
2023-06-10T08:52:03.140Z,20.58
2023-06-10T08:53:08.735Z,20.64
2023-06-10T08:54:16.612Z,20.68
2023-06-10T08:55:33.096Z,20.71
2023-06-10T08:56:40.926Z,20.70
2023-06-10T08:57:45.551Z,20.64
2023-06-10T08:58:48.888Z,20.60
2023-06-10T08:59:50.834Z,20.48
2023-06-10T09:00:53.216Z,20.44
2023-06-10T09:01:55.991Z,20.46
2023-06-10T09:03:00.232Z,20.52
2023-06-10T09:04:04.498Z,20.57
2023-06-10T09:05:06.612Z,20.64
2023-06-10T09:06:08.410Z,20.60
2023-06-10T09:07:11.017Z,20.56
2023-06-10T09:08:12.765Z,20.53
2023-06-10T09:09:15.953Z,20.54
2023-06-10T09:10:17.889Z,20.55
2023-06-10T09:11:19.637Z,20.55
2023-06-10T09:12:21.485Z,20.56
2023-06-10T09:13:23.193Z,20.45
2023-06-10T09:14:25.295Z,20.52
2023-06-10T09:15:26.902Z,20.54
2023-06-10T09:16:29.291Z,20.49
2023-06-10T09:17:31.240Z,20.46
2023-06-10T09:18:32.879Z,20.44
2023-06-10T09:19:36.567Z,20.44
2023-06-10T09:20:39.971Z,20.51
2023-06-10T09:21:41.659Z,20.65
2023-06-10T09:22:44.636Z,20.78
2023-06-10T09:23:46.942Z,20.77
2023-06-10T09:24:49.010Z,20.63
2023-06-10T09:25:58.902Z,20.61
2023-06-10T09:27:08.753Z,20.62
2023-06-10T09:28:19.739Z,20.75
2023-06-10T09:29:21.507Z,20.81
2023-06-10T09:30:34.570Z,20.76
2023-06-10T09:31:37.677Z,20.71
2023-06-10T09:32:40.744Z,20.71
2023-06-10T09:33:42.420Z,20.82
2023-06-10T09:34:45.498Z,20.91
2023-06-10T09:35:49.289Z,21.05
2023-06-10T09:36:51.304Z,21.21
2023-06-10T09:38:03.408Z,21.35
2023-06-10T09:39:06.180Z,21.13
2023-06-10T09:40:11.952Z,21.13
2023-06-10T09:41:16.283Z,21.19
2023-06-10T09:42:19.666Z,21.28
2023-06-10T09:43:21.831Z,21.19
2023-06-10T09:44:25.553Z,21.10
2023-06-10T09:45:34.211Z,21.08
2023-06-10T09:46:36.389Z,21.06
2023-06-10T09:47:38.164Z,21.16
2023-06-10T09:48:45.044Z,21.24
2023-06-10T09:49:47.056Z,21.32
2023-06-10T09:50:49.612Z,21.36
2023-06-10T09:51:53.319Z,21.40
2023-06-10T09:52:55.042Z,21.44
2023-06-10T09:53:56.692Z,21.44
2023-06-10T09:55:02.588Z,21.48
2023-06-10T09:56:04.584Z,21.49
2023-06-10T09:57:10.376Z,21.56
2023-06-10T09:58:11.997Z,21.56
2023-06-10T09:59:13.730Z,21.60
2023-06-10T10:00:16.663Z,21.67
2023-06-10T10:01:18.702Z,21.74
2023-06-10T10:02:20.710Z,21.76
2023-06-10T10:03:25.628Z,21.72
2023-06-10T10:04:29.597Z,21.70
2023-06-10T10:05:31.648Z,21.72
2023-06-10T10:06:33.749Z,21.79
2023-06-10T10:07:35.912Z,21.87
2023-06-10T10:08:37.613Z,21.90
2023-06-10T10:09:40.750Z,21.84
2023-06-10T10:10:42.378Z,21.75
2023-06-10T10:11:45.156Z,21.78
2023-06-10T10:12:54.726Z,21.83
2023-06-10T10:13:56.559Z,21.87
2023-06-10T10:14:58.257Z,21.90
2023-06-10T10:16:02.743Z,22.02
2023-06-10T10:17:12.059Z,22.10
2023-06-10T10:18:19.222Z,22.17
2023-06-10T10:19:32.050Z,22.19
2023-06-10T10:20:35.868Z,22.24
2023-06-10T10:21:46.057Z,22.26
2023-06-10T10:22:50.810Z,22.27
2023-06-10T10:24:31.303Z,22.32
2023-06-10T10:25:39.108Z,22.38
2023-06-10T10:26:41.559Z,22.41
2023-06-10T10:27:52.146Z,22.41
2023-06-10T10:29:12.508Z,22.41
2023-06-10T10:30:17.007Z,22.44
2023-06-10T10:31:20.330Z,22.46
2023-06-10T10:32:33.527Z,22.50
2023-06-10T10:33:57.452Z,22.55
2023-06-10T10:35:20.259Z,22.65
2023-06-10T10:36:21.840Z,22.56
2023-06-10T10:37:23.904Z,22.57
2023-06-10T10:38:26.150Z,22.56
2023-06-10T10:39:29.323Z,22.60
2023-06-10T10:40:31.282Z,22.62
2023-06-10T10:41:33.958Z,22.53
2023-06-10T10:42:37.558Z,22.53
2023-06-10T10:43:39.395Z,22.51
2023-06-10T10:44:41.693Z,22.56
2023-06-10T10:45:43.307Z,22.61
2023-06-10T10:46:49.428Z,22.53
2023-06-10T10:47:56.768Z,22.54
2023-06-10T10:48:59.848Z,22.53
2023-06-10T10:50:01.510Z,22.59
2023-06-10T10:51:03.266Z,22.55
2023-06-10T10:52:07.884Z,22.53
2023-06-10T10:53:12.063Z,22.55
2023-06-10T10:54:14.908Z,22.55
2023-06-10T10:55:16.677Z,22.58
2023-06-10T10:56:21.807Z,22.67
2023-06-10T10:57:27.409Z,22.71
2023-06-10T10:58:29.032Z,22.78
2023-06-10T10:59:50.498Z,22.77
2023-06-10T11:00:52.172Z,22.85
2023-06-10T11:01:54.287Z,22.90
2023-06-10T11:03:11.212Z,22.98
2023-06-10T11:04:14.426Z,23.09
2023-06-10T11:05:17.482Z,23.03
2023-06-10T11:06:19.733Z,22.93
2023-06-10T11:07:22.817Z,22.95
2023-06-10T11:08:33.700Z,23.02
2023-06-10T11:09:35.744Z,23.10
2023-06-10T11:10:42.400Z,23.19
2023-06-10T11:11:51.002Z,23.25
2023-06-10T11:12:54.214Z,23.25
2023-06-10T11:14:02.729Z,23.33
2023-06-10T11:15:05.041Z,23.43
2023-06-10T11:16:10.955Z,23.36
2023-06-10T11:17:22.556Z,23.33
2023-06-10T11:18:32.242Z,23.40
2023-06-10T11:19:38.603Z,23.44
2023-06-10T11:20:56.629Z,23.46
2023-06-10T11:22:02.939Z,23.47
2023-06-10T11:23:04.842Z,23.54
2023-06-10T11:24:15.985Z,23.63
2023-06-10T11:25:17.678Z,23.74
2023-06-10T11:26:32.289Z,23.80
2023-06-10T11:27:40.540Z,23.76
2023-06-10T11:29:06.029Z,23.79
2023-06-10T11:30:08.788Z,23.79
2023-06-10T11:31:21.698Z,23.75
2023-06-10T11:32:30.074Z,23.77
2023-06-10T11:33:33.582Z,23.77
2023-06-10T11:34:35.324Z,23.66
2023-06-10T11:35:37.306Z,23.64
2023-06-10T11:36:43.370Z,23.41
2023-06-10T11:37:45.823Z,23.34
2023-06-10T11:38:47.847Z,23.30
2023-06-10T11:39:53.741Z,23.28
2023-06-10T11:40:57.245Z,23.34
2023-06-10T11:41:59.592Z,23.43
2023-06-10T11:43:01.473Z,23.52
2023-06-10T11:44:06.201Z,23.65
2023-06-10T11:45:09.690Z,23.68
2023-06-10T11:46:15.587Z,23.70
2023-06-10T11:47:18.741Z,23.82
2023-06-10T11:48:20.839Z,23.89
2023-06-10T11:49:22.740Z,23.99
2023-06-10T11:50:31.609Z,24.02
2023-06-10T11:51:38.628Z,24.10
2023-06-10T11:52:42.421Z,24.13
2023-06-10T11:53:51.005Z,24.18
2023-06-10T11:54:56.464Z,24.22
2023-06-10T11:55:58.129Z,24.21
2023-06-10T11:57:04.327Z,24.21
2023-06-10T11:58:06.078Z,24.19
2023-06-10T11:59:08.803Z,24.13
2023-06-10T12:00:11.218Z,24.10
2023-06-10T12:01:28.235Z,24.13
2023-06-10T12:02:30.855Z,24.13
2023-06-10T12:03:40.676Z,24.00
2023-06-10T12:04:42.420Z,23.92
2023-06-10T12:06:06.150Z,23.97
2023-06-10T12:07:07.722Z,24.04
2023-06-10T12:08:12.992Z,23.99
2023-06-10T12:09:25.802Z,24.03
2023-06-10T12:10:29.340Z,24.03
2023-06-10T12:11:30.986Z,24.01
2023-06-10T12:12:35.632Z,24.01
2023-06-10T12:13:37.958Z,24.11
2023-06-10T12:15:00.054Z,24.16
2023-06-10T12:16:09.561Z,24.30
2023-06-10T12:17:11.458Z,24.43
2023-06-10T12:18:20.849Z,24.54
2023-06-10T12:19:22.449Z,24.60
2023-06-10T12:20:34.227Z,24.59
2023-06-10T12:21:37.971Z,24.53
2023-06-10T12:22:46.867Z,24.55
2023-06-10T12:24:10.299Z,24.68
2023-06-10T12:25:13.402Z,24.77
2023-06-10T12:26:15.561Z,24.76
2023-06-10T12:27:19.665Z,24.83
2023-06-10T12:28:25.755Z,24.75
2023-06-10T12:29:27.464Z,24.79
2023-06-10T12:30:29.766Z,24.89
2023-06-10T12:31:31.706Z,24.90
2023-06-10T12:32:47.530Z,24.90
2023-06-10T12:33:50.239Z,24.90
2023-06-10T12:35:02.985Z,24.85
2023-06-10T12:36:05.377Z,24.93
2023-06-10T12:37:14.461Z,25.01
2023-06-10T12:38:22.919Z,25.07
2023-06-10T12:39:24.679Z,25.11
2023-06-10T12:40:32.980Z,25.10
2023-06-10T12:41:38.191Z,25.05
2023-06-10T12:42:40.433Z,25.02
2023-06-10T12:43:42.113Z,25.10
2023-06-10T12:44:43.769Z,25.15
2023-06-10T12:45:45.956Z,25.14
2023-06-10T12:46:56.189Z,25.19
2023-06-10T12:48:11.074Z,25.24
2023-06-10T12:49:21.891Z,25.32
2023-06-10T12:50:23.615Z,25.32
2023-06-10T12:51:25.365Z,25.36
2023-06-10T12:52:27.190Z,25.38
2023-06-10T12:53:28.813Z,25.40
2023-06-10T12:54:30.826Z,25.37
2023-06-10T12:55:33.486Z,25.37
2023-06-10T12:56:35.196Z,25.44
2023-06-10T12:57:36.908Z,25.40
2023-06-10T12:58:38.518Z,25.38
2023-06-10T12:59:40.643Z,25.32
2023-06-10T13:00:43.296Z,25.33
2023-06-10T13:01:44.963Z,25.29
2023-06-10T13:02:46.635Z,25.28
2023-06-10T13:03:48.970Z,25.30
2023-06-10T13:04:55.944Z,25.37
2023-06-10T13:05:58.002Z,25.34
2023-06-10T13:07:02.137Z,25.37
2023-06-10T13:08:03.985Z,25.36
2023-06-10T13:09:07.845Z,25.40
2023-06-10T13:10:09.910Z,25.41
2023-06-10T13:11:11.562Z,25.41
2023-06-10T13:12:16.703Z,25.43
2023-06-10T13:13:18.666Z,25.34
2023-06-10T13:14:20.869Z,25.23
2023-06-10T13:15:23.277Z,25.21
2023-06-10T13:16:24.994Z,25.11
2023-06-10T13:17:26.906Z,25.11
2023-06-10T13:18:28.558Z,25.17
2023-06-10T13:19:30.927Z,25.24
2023-06-10T13:20:32.971Z,25.27
2023-06-10T13:21:35.326Z,25.30
2023-06-10T13:22:37.716Z,25.35
2023-06-10T13:23:39.633Z,25.40
2023-06-10T13:24:41.760Z,25.42
2023-06-10T13:25:45.585Z,25.25
2023-06-10T13:26:47.710Z,25.05
2023-06-10T13:27:49.900Z,24.98
2023-06-10T13:28:51.511Z,24.90
2023-06-10T13:29:53.179Z,24.86
2023-06-10T13:30:54.944Z,24.84
2023-06-10T13:31:56.639Z,24.77
2023-06-10T13:32:58.459Z,24.68
2023-06-10T13:34:00.268Z,24.66
2023-06-10T13:35:06.164Z,24.70
2023-06-10T13:36:08.033Z,24.73
2023-06-10T13:37:09.687Z,24.84
2023-06-10T13:38:11.352Z,24.90
2023-06-10T13:39:17.119Z,24.86
2023-06-10T13:40:20.680Z,24.87
2023-06-10T13:41:22.371Z,24.94